createdAt,value
2018-06-28T00:00:07.066Z,5.83
2018-06-28T00:02:35.176Z,5.67
2018-06-28T00:05:03.533Z,5.87
2018-06-28T00:07:31.521Z,5.80
2018-06-28T00:09:59.712Z,6.00
2018-06-28T00:12:27.792Z,5.90
2018-06-28T00:14:55.965Z,5.80
2018-06-28T00:17:24.126Z,5.50
2018-06-28T00:19:52.221Z,6.20
2018-06-28T00:22:20.306Z,5.50
2018-06-28T00:24:48.365Z,5.70
2018-06-28T00:27:16.444Z,6.20
2018-06-28T00:29:44.499Z,5.70
2018-06-28T00:32:12.590Z,5.30
2018-06-28T00:34:40.656Z,6.10
2018-06-28T00:37:08.740Z,5.83
2018-06-28T00:39:36.781Z,5.65
2018-06-28T00:42:05.087Z,6.00
2018-06-28T00:44:33.260Z,5.62
2018-06-28T00:47:01.313Z,5.60
2018-06-28T00:49:29.408Z,5.70
2018-06-28T00:51:57.578Z,5.90
2018-06-28T00:54:25.669Z,6.00
2018-06-28T00:56:53.824Z,7.10
2018-06-28T00:59:22.126Z,5.25
2018-06-28T01:01:50.257Z,5.47
2018-06-28T01:04:18.442Z,5.60
2018-06-28T01:06:46.744Z,5.40
2018-06-28T01:09:14.789Z,5.35
2018-06-28T01:11:42.883Z,5.87
2018-06-28T01:14:11.149Z,5.90
2018-06-28T01:16:39.236Z,5.28
2018-06-28T01:19:07.958Z,5.85
2018-06-28T01:21:36.207Z,5.37
2018-06-28T01:24:04.452Z,5.80
2018-06-28T01:26:32.569Z,5.50
2018-06-28T01:29:00.873Z,5.40
2018-06-28T01:31:29.015Z,6.10
2018-06-28T01:33:57.053Z,5.67
2018-06-28T01:36:25.181Z,5.80
2018-06-28T01:38:53.224Z,5.53
2018-06-28T01:41:21.273Z,6.10
2018-06-28T01:43:49.369Z,5.67
2018-06-28T01:46:18.301Z,5.58
2018-06-28T01:48:46.358Z,6.05
2018-06-28T01:51:14.504Z,5.50
2018-06-28T01:53:42.803Z,6.60
2018-06-28T01:56:10.934Z,6.30
2018-06-28T01:58:39.639Z,5.80
2018-06-28T02:01:07.805Z,7.33
2018-06-28T02:03:35.895Z,6.10
2018-06-28T02:06:04.043Z,6.78
2018-06-28T02:08:32.042Z,6.50
2018-06-28T02:11:00.188Z,6.00
2018-06-28T02:13:28.301Z,7.00
2018-06-28T02:15:56.441Z,6.87
2018-06-28T02:18:28.858Z,7.90
2018-06-28T02:20:59.084Z,7.55
2018-06-28T02:23:29.292Z,7.53
2018-06-28T02:25:57.776Z,7.83
2018-06-28T02:28:35.730Z,7.10
2018-06-28T02:31:03.916Z,7.85
2018-06-28T02:33:32.012Z,6.90
2018-06-28T02:36:00.227Z,7.40
2018-06-28T02:38:28.262Z,7.75
2018-06-28T02:40:56.481Z,6.97
2018-06-28T02:43:24.504Z,8.03
2018-06-28T02:45:52.612Z,7.60
2018-06-28T02:48:20.649Z,9.33
2018-06-28T02:50:48.760Z,9.43
2018-06-28T02:53:16.875Z,8.70
2018-06-28T02:55:44.910Z,9.55
2018-06-28T02:58:12.973Z,9.03
2018-06-28T03:00:41.230Z,8.63
2018-06-28T03:03:09.537Z,9.83
2018-06-28T03:05:37.577Z,9.10
2018-06-28T03:08:06.228Z,9.08
2018-06-28T03:10:34.422Z,8.90
2018-06-28T03:13:02.244Z,9.30
2018-06-28T03:15:30.472Z,8.78
2018-06-28T03:17:59.671Z,8.20
2018-06-28T03:20:28.064Z,9.23
2018-06-28T03:22:56.277Z,9.70
2018-06-28T03:25:24.425Z,9.30
2018-06-28T03:27:52.587Z,8.78
2018-06-28T03:30:20.800Z,8.60
2018-06-28T03:32:48.882Z,9.10
2018-06-28T03:35:16.940Z,9.38
2018-06-28T03:37:45.151Z,10.35
2018-06-28T03:40:13.290Z,9.80
2018-06-28T03:42:41.445Z,11.00
2018-06-28T03:45:09.656Z,10.72
2018-06-28T03:47:37.687Z,11.85
2018-06-28T03:50:05.880Z,10.95
2018-06-28T03:52:34.027Z,11.70
2018-06-28T03:55:02.243Z,11.50
2018-06-28T03:57:30.363Z,11.30
2018-06-28T03:59:58.481Z,11.20
2018-06-28T04:02:26.558Z,11.60
2018-06-28T04:04:54.788Z,12.10
2018-06-28T04:07:23.121Z,12.70
2018-06-28T04:09:51.269Z,11.80
2018-06-28T04:12:19.365Z,13.10
2018-06-28T04:14:47.410Z,12.98
2018-06-28T04:17:15.511Z,12.43
2018-06-28T04:19:43.672Z,12.10
2018-06-28T04:22:16.523Z,12.50
2018-06-28T04:24:44.339Z,12.80
2018-06-28T04:27:12.384Z,12.50
2018-06-28T04:29:40.476Z,12.82
2018-06-28T04:32:08.533Z,12.63
2018-06-28T04:34:36.732Z,13.20
2018-06-28T04:37:04.972Z,13.28
2018-06-28T04:39:33.089Z,13.50
2018-06-28T04:42:01.158Z,13.17
2018-06-28T04:44:29.215Z,14.10
2018-06-28T04:46:57.292Z,15.00
2018-06-28T04:49:25.356Z,14.35
2018-06-28T04:51:53.445Z,14.80
2018-06-28T04:54:21.506Z,15.70
2018-06-28T04:56:49.588Z,15.50
2018-06-28T04:59:17.648Z,13.90
2018-06-28T05:01:45.836Z,14.70
2018-06-28T05:04:13.989Z,14.65
2018-06-28T05:06:42.079Z,14.13
2018-06-28T05:09:10.169Z,13.93
2018-06-28T05:11:38.226Z,12.95
2018-06-28T05:14:06.919Z,14.50
2018-06-28T05:16:35.080Z,14.10
2018-06-28T05:19:03.586Z,14.13
2018-06-28T05:21:31.823Z,14.45
2018-06-28T05:23:59.725Z,14.50
2018-06-28T05:26:27.876Z,14.50
2018-06-28T05:28:56.100Z,14.25
2018-06-28T05:31:24.121Z,14.33
2018-06-28T05:33:52.536Z,15.30
2018-06-28T05:36:20.693Z,14.77
2018-06-28T05:38:48.785Z,14.80
2018-06-28T05:41:16.949Z,15.07
2018-06-28T05:43:45.200Z,15.55
2018-06-28T05:46:13.454Z,15.60
2018-06-28T05:48:41.549Z,15.95
2018-06-28T05:51:09.545Z,15.03
2018-06-28T05:53:37.705Z,16.40
2018-06-28T05:56:05.969Z,16.50
2018-06-28T05:58:34.173Z,16.73
2018-06-28T06:01:02.460Z,16.15
2018-06-28T06:03:30.537Z,16.80
2018-06-28T06:05:58.869Z,15.50
2018-06-28T06:08:26.668Z,15.55
2018-06-28T06:10:54.849Z,16.12
2018-06-28T06:13:23.029Z,17.50
2018-06-28T06:15:51.096Z,16.10
2018-06-28T06:18:19.284Z,16.80
2018-06-28T06:20:47.425Z,16.12
2018-06-28T06:23:15.617Z,16.27
2018-06-28T06:25:43.896Z,16.62
2018-06-28T06:28:12.010Z,16.20
2018-06-28T06:30:40.129Z,16.60
2018-06-28T06:33:08.239Z,16.40
2018-06-28T06:35:36.506Z,16.52
2018-06-28T06:38:04.561Z,16.25
2018-06-28T06:40:32.661Z,14.63
2018-06-28T06:43:00.763Z,15.15
2018-06-28T06:45:29.129Z,13.70
2018-06-28T06:47:57.544Z,13.98
2018-06-28T06:50:25.671Z,14.80
2018-06-28T06:52:53.942Z,13.70
2018-06-28T06:55:21.992Z,15.00
2018-06-28T06:57:50.044Z,16.32
2018-06-28T07:00:17.824Z,14.75
2018-06-28T07:02:45.929Z,15.32
2018-06-28T07:05:13.973Z,16.03
2018-06-28T07:07:42.086Z,15.70
2018-06-28T07:10:10.161Z,15.53
2018-06-28T07:12:38.211Z,16.25
2018-06-28T07:15:06.492Z,17.50
2018-06-28T07:17:34.585Z,16.93
2018-06-28T07:20:02.825Z,18.25
2018-06-28T07:22:30.931Z,15.58
2018-06-28T07:24:59.073Z,18.00
2018-06-28T07:27:27.171Z,17.90
2018-06-28T07:29:55.515Z,16.80
2018-06-28T07:32:23.304Z,17.30
2018-06-28T07:34:51.398Z,18.15
2018-06-28T07:37:19.460Z,21.57
2018-06-28T07:39:47.700Z,22.70
2018-06-28T07:42:15.471Z,23.02
2018-06-28T07:44:43.271Z,26.70
2018-06-28T07:47:11.559Z,25.40
2018-06-28T07:49:39.669Z,26.82
2018-06-28T07:52:07.768Z,25.85
2018-06-28T07:54:35.699Z,24.60
2018-06-28T07:57:03.978Z,23.18
2018-06-28T07:59:32.101Z,24.67
2018-06-28T08:02:00.301Z,25.25
2018-06-28T08:04:28.358Z,26.37
2018-06-28T08:06:56.536Z,22.25
2018-06-28T08:09:24.703Z,25.72
2018-06-28T08:11:52.724Z,27.90
2018-06-28T08:14:20.768Z,24.95
2018-06-28T08:16:48.951Z,26.20
2018-06-28T08:19:17.008Z,25.97
2018-06-28T08:21:45.161Z,28.32
2018-06-28T08:24:13.373Z,25.80
2018-06-28T08:26:41.760Z,28.23
2018-06-28T08:29:09.840Z,29.18
2018-06-28T08:31:37.861Z,27.43
2018-06-28T08:37:41.226Z,25.80
2018-06-28T08:40:09.703Z,25.30
2018-06-28T08:42:37.437Z,25.57
2018-06-28T08:45:05.849Z,24.23
2018-06-28T08:47:34.006Z,27.43
2018-06-28T08:50:02.108Z,25.85
2018-06-28T08:52:30.244Z,25.08
2018-06-28T08:54:58.348Z,29.55
2018-06-28T08:57:26.381Z,30.12
2018-06-28T08:59:54.412Z,32.95
2018-06-28T09:02:22.630Z,33.02
2018-06-28T09:04:50.411Z,36.60
2018-06-28T09:07:18.611Z,42.58
2018-06-28T09:09:46.761Z,38.20
2018-06-28T09:12:14.857Z,38.75
2018-06-28T09:14:43.100Z,37.85
2018-06-28T09:17:11.310Z,42.35
2018-06-28T09:19:39.469Z,36.70
2018-06-28T09:22:07.548Z,41.15
2018-06-28T09:24:35.621Z,44.77
2018-06-28T09:27:03.711Z,37.08
2018-06-28T09:29:31.958Z,36.95
2018-06-28T09:32:00.069Z,39.60
2018-06-28T09:34:28.229Z,39.38
2018-06-28T09:36:56.212Z,35.17
2018-06-28T09:39:24.349Z,36.13
2018-06-28T09:41:52.416Z,39.35
2018-06-28T09:44:20.431Z,37.70
2018-06-28T09:46:48.453Z,34.20
2018-06-28T09:49:16.577Z,42.65
2018-06-28T09:51:44.836Z,36.65
2018-06-28T09:54:13.014Z,40.92
2018-06-28T09:56:41.084Z,41.77
2018-06-28T09:59:09.238Z,43.78
2018-06-28T10:01:37.331Z,38.88
2018-06-28T10:04:05.604Z,39.38
2018-06-28T10:06:33.686Z,42.30
2018-06-28T10:09:01.788Z,40.45
2018-06-28T10:11:29.856Z,41.02
2018-06-28T10:13:57.885Z,37.90
2018-06-28T10:16:26.288Z,36.90
2018-06-28T10:18:54.541Z,41.80
2018-06-28T10:21:22.857Z,35.33
2018-06-28T10:23:51.028Z,35.63
2018-06-28T10:26:19.169Z,41.80
2018-06-28T10:28:47.389Z,40.17
2018-06-28T10:31:15.421Z,43.23
2018-06-28T10:33:43.619Z,37.58
2018-06-28T10:36:11.919Z,40.92
2018-06-28T10:38:39.957Z,40.10
2018-06-28T10:41:08.249Z,34.60
2018-06-28T10:43:36.505Z,37.67
2018-06-28T10:46:04.619Z,29.98
2018-06-28T10:48:32.648Z,37.42
2018-06-28T10:51:00.740Z,36.77
2018-06-28T10:53:28.805Z,36.77
2018-06-28T10:55:57.108Z,39.00
2018-06-28T10:58:25.192Z,42.33
2018-06-28T11:00:53.318Z,40.70
2018-06-28T11:03:21.553Z,38.50
2018-06-28T11:05:49.665Z,43.13
2018-06-28T11:08:17.802Z,47.53
2018-06-28T11:10:45.834Z,42.90
2018-06-28T11:13:13.936Z,37.80
2018-06-28T11:15:42.064Z,44.00
2018-06-28T11:18:10.173Z,37.13
2018-06-28T11:20:38.327Z,36.95
2018-06-28T11:23:06.512Z,45.00
2018-06-28T11:25:34.577Z,43.05
2018-06-28T11:28:02.684Z,42.73
2018-06-28T11:30:30.731Z,39.23
2018-06-28T11:32:58.836Z,42.33
2018-06-28T11:35:26.940Z,40.03
2018-06-28T11:37:54.727Z,37.42
2018-06-28T11:40:22.821Z,40.98
2018-06-28T11:42:50.965Z,45.60
2018-06-28T11:45:18.860Z,42.43
2018-06-28T11:47:47.032Z,49.98
2018-06-28T11:50:15.184Z,46.63
2018-06-28T11:52:43.086Z,44.23
2018-06-28T11:55:11.144Z,47.67
2018-06-28T11:57:39.449Z,48.00
2018-06-28T12:00:07.589Z,47.63
2018-06-28T12:02:35.993Z,49.65
2018-06-28T12:05:04.153Z,49.55
2018-06-28T12:07:32.353Z,54.00
2018-06-28T12:10:00.326Z,50.95
2018-06-28T12:12:28.575Z,47.67
2018-06-28T12:14:56.878Z,53.35
2018-06-28T12:17:25.005Z,51.48
2018-06-28T12:19:53.035Z,57.60
2018-06-28T12:22:21.100Z,50.15
2018-06-28T12:24:49.170Z,54.23
2018-06-28T12:27:17.413Z,50.23
2018-06-28T12:29:45.640Z,49.13
2018-06-28T12:32:13.761Z,48.17
2018-06-28T12:34:42.000Z,53.33
2018-06-28T12:37:10.124Z,52.30
2018-06-28T12:39:38.286Z,51.77
2018-06-28T12:42:06.564Z,55.48
2018-06-28T12:44:34.674Z,56.15
2018-06-28T12:47:46.693Z,57.17
2018-06-28T12:50:14.761Z,53.05
2018-06-28T12:52:51.902Z,58.48
2018-06-28T12:55:20.663Z,52.53
2018-06-28T12:57:49.412Z,55.40
2018-06-28T13:00:17.968Z,52.33
2018-06-28T13:02:46.256Z,55.35
2018-06-28T13:05:15.176Z,54.23
2018-06-28T13:07:43.340Z,52.50
2018-06-28T13:10:12.676Z,49.58
2018-06-28T13:12:40.626Z,54.88
2018-06-28T13:15:10.152Z,54.48
2018-06-28T13:17:38.512Z,52.13
2018-06-28T13:20:07.413Z,54.73
2018-06-28T13:22:35.596Z,54.38
2018-06-28T13:25:04.268Z,54.58
2018-06-28T13:27:32.404Z,53.15
2018-06-28T13:30:00.807Z,53.75
2018-06-28T13:32:28.863Z,52.20
2018-06-28T13:34:56.978Z,52.93
2018-06-28T13:37:25.109Z,44.70
2018-06-28T13:39:53.196Z,51.70
2018-06-28T13:42:21.427Z,49.95
2018-06-28T13:44:49.444Z,43.40
2018-06-28T13:47:17.593Z,51.85
2018-06-28T13:49:45.516Z,48.78
2018-06-28T13:52:13.753Z,55.83
2018-06-28T13:54:41.849Z,48.80
2018-06-28T13:57:10.009Z,59.55
2018-06-28T13:59:38.193Z,48.68
2018-06-28T14:02:06.657Z,47.03
2018-06-28T14:04:34.780Z,47.05
2018-06-28T14:07:02.776Z,45.00
2018-06-28T14:09:30.994Z,45.23
2018-06-28T14:11:59.280Z,47.88
2018-06-28T14:14:27.539Z,52.15
2018-06-28T14:16:55.633Z,53.73
2018-06-28T14:19:23.684Z,52.58
2018-06-28T14:21:51.790Z,52.62
2018-06-28T14:24:19.832Z,54.05
2018-06-28T14:26:47.938Z,53.40
2018-06-28T14:29:16.002Z,49.70
2018-06-28T14:31:44.065Z,44.38
2018-06-28T14:34:12.133Z,51.88
2018-06-28T14:36:40.196Z,47.05
2018-06-28T14:39:09.155Z,41.90
2018-06-28T14:41:37.428Z,40.73
2018-06-28T14:44:05.259Z,30.30
2018-06-28T14:46:33.323Z,38.02
2018-06-28T14:49:01.526Z,20.80
2018-06-28T14:51:29.556Z,25.30
2018-06-28T14:53:57.664Z,26.82
2018-06-28T14:56:25.904Z,19.80
2018-06-28T14:58:53.791Z,21.27
2018-06-28T15:01:22.036Z,24.60
2018-06-28T15:03:50.062Z,22.73
2018-06-28T15:06:18.126Z,23.47
2018-06-28T15:08:46.173Z,26.40
2018-06-28T15:11:14.285Z,21.80
2018-06-28T15:13:42.331Z,19.97
2018-06-28T15:16:10.425Z,20.05
2018-06-28T15:18:38.676Z,18.20
2018-06-28T15:21:06.761Z,22.13
2018-06-28T15:23:34.820Z,18.83
2018-06-28T15:26:03.021Z,20.88
2018-06-28T15:28:31.074Z,24.27
2018-06-28T15:30:59.256Z,21.12
2018-06-28T15:33:27.439Z,23.90
2018-06-28T15:35:55.572Z,22.62
2018-06-28T15:38:23.597Z,19.43
2018-06-28T15:40:51.635Z,22.02
2018-06-28T15:43:19.727Z,23.05
2018-06-28T15:45:47.849Z,24.60
2018-06-28T15:48:15.985Z,17.60
2018-06-28T15:50:44.141Z,25.17
2018-06-28T15:53:12.233Z,24.80
2018-06-28T15:55:40.592Z,28.57
2018-06-28T15:58:08.684Z,29.20
2018-06-28T16:00:36.764Z,26.30
2018-06-28T16:03:04.853Z,26.48
2018-06-28T16:05:32.899Z,31.10
2018-06-28T16:08:01.154Z,26.37
2018-06-28T16:10:29.273Z,26.50
2018-06-28T16:12:57.292Z,23.70
2018-06-28T16:15:25.199Z,28.62
2018-06-28T16:17:53.439Z,23.45
2018-06-28T16:20:21.336Z,24.60
2018-06-28T16:22:49.504Z,31.95
2018-06-28T16:25:17.610Z,24.82
2018-06-28T16:27:45.649Z,25.25
2018-06-28T16:30:13.728Z,27.73
2018-06-28T16:32:41.793Z,29.72
2018-06-28T16:35:09.975Z,27.42
2018-06-28T16:37:38.057Z,25.60
2018-06-28T16:40:06.235Z,24.57
2018-06-28T16:42:34.409Z,27.05
2018-06-28T16:45:02.568Z,24.82
2018-06-28T16:47:30.767Z,21.50
2018-06-28T16:49:58.824Z,27.77
2018-06-28T16:52:27.057Z,23.45
2018-06-28T16:54:55.049Z,27.45
2018-06-28T16:57:23.157Z,25.95
2018-06-28T16:59:51.426Z,24.45
2018-06-28T17:02:19.740Z,19.07
2018-06-28T17:04:47.844Z,24.90
2018-06-28T17:07:15.964Z,28.25
2018-06-28T17:09:44.125Z,23.60
2018-06-28T17:12:12.217Z,22.60
2018-06-28T17:14:40.361Z,22.37
2018-06-28T17:17:08.975Z,28.00
2018-06-28T17:19:37.264Z,26.95
2018-06-28T17:22:11.216Z,27.03
2018-06-28T17:24:40.283Z,23.85
2018-06-28T17:27:09.129Z,25.75
2018-06-28T17:29:37.862Z,25.03
2018-06-28T17:32:11.499Z,23.85
2018-06-28T17:34:44.481Z,26.55
2018-06-28T17:37:15.576Z,25.70
2018-06-28T17:39:46.646Z,23.20
2018-06-28T17:42:15.805Z,25.57
2018-06-28T17:44:46.144Z,23.20
2018-06-28T17:47:16.081Z,24.90
2018-06-28T17:49:44.598Z,27.52
2018-06-28T17:52:13.049Z,25.52
2018-06-28T17:54:41.079Z,24.90
2018-06-28T17:57:09.164Z,23.07
2018-06-28T17:59:37.232Z,25.23
2018-06-28T18:02:05.332Z,24.80
2018-06-28T18:04:33.369Z,23.87
2018-06-28T18:07:01.448Z,24.82
2018-06-28T18:09:29.517Z,24.70
2018-06-28T18:11:57.808Z,25.60
2018-06-28T18:14:25.856Z,25.48
2018-06-28T18:16:53.953Z,25.02
2018-06-28T18:19:22.012Z,25.23
2018-06-28T18:21:50.121Z,25.90
2018-06-28T18:24:18.253Z,24.33
2018-06-28T18:26:46.369Z,25.20
2018-06-28T18:29:14.427Z,24.70
2018-06-28T18:31:42.666Z,25.37
2018-06-28T18:34:22.737Z,25.13
2018-06-28T18:36:53.275Z,25.60
2018-06-28T18:39:27.444Z,26.50
2018-06-28T18:41:57.804Z,24.77
2018-06-28T18:44:28.497Z,24.05
2018-06-28T18:47:07.635Z,26.35
2018-06-28T18:49:46.546Z,27.10
2018-06-28T18:52:16.835Z,26.42
2018-06-28T18:54:47.370Z,27.22
2018-06-28T18:57:18.301Z,27.00
2018-06-28T18:59:46.376Z,27.00
2018-06-28T19:02:14.746Z,26.35
2018-06-28T19:04:42.752Z,27.60
2018-06-28T19:07:10.855Z,25.23
2018-06-28T19:09:44.484Z,27.32
2018-06-28T19:12:12.414Z,28.12
2018-06-28T19:15:50.065Z,29.95
2018-06-28T19:18:18.277Z,31.05
2018-06-28T19:20:51.881Z,30.62
2018-06-28T19:23:25.572Z,29.77
2018-06-28T19:25:53.837Z,27.98
2018-06-28T19:28:22.148Z,31.10
2018-06-28T19:30:57.317Z,30.15
2018-06-28T19:33:25.356Z,30.57
2018-06-28T19:35:53.432Z,32.13
2018-06-28T19:38:21.605Z,35.00
2018-06-28T19:40:54.982Z,30.20
2018-06-28T19:43:23.074Z,37.40
2018-06-28T19:45:51.220Z,34.65
2018-06-28T19:48:19.327Z,34.80
2018-06-28T19:50:52.828Z,38.95
2018-06-28T19:53:20.888Z,36.97
2018-06-28T19:55:51.844Z,35.98
2018-06-28T19:58:21.145Z,36.25
2018-06-28T20:00:54.615Z,37.48
2018-06-28T20:03:28.115Z,39.80
2018-06-28T20:05:56.189Z,39.88
2018-06-28T20:08:24.387Z,41.42
2018-06-28T20:10:52.570Z,41.70
2018-06-28T20:13:26.125Z,38.17
2018-06-28T20:15:59.465Z,40.30
2018-06-28T20:18:32.900Z,38.15
2018-06-28T20:21:02.074Z,38.13
2018-06-28T20:23:30.347Z,40.38
2018-06-28T20:26:02.813Z,41.48
2018-06-28T20:28:36.737Z,42.85
2018-06-28T20:31:10.660Z,41.58
2018-06-28T20:33:44.192Z,39.78
2018-06-28T20:37:37.184Z,44.27
2018-06-28T20:40:05.473Z,43.50
2018-06-28T20:42:33.624Z,42.00
2018-06-28T20:45:01.797Z,44.00
2018-06-28T20:47:30.015Z,43.40
2018-06-28T20:49:58.190Z,42.95
2018-06-28T20:52:26.364Z,45.78
2018-06-28T20:54:54.645Z,46.42
2018-06-28T20:57:22.897Z,45.10
2018-06-28T20:59:50.989Z,45.58
2018-06-28T21:02:19.021Z,45.83
2018-06-28T21:04:46.996Z,47.03
2018-06-28T21:07:15.200Z,46.35
2018-06-28T21:09:43.354Z,46.68
2018-06-28T21:12:11.444Z,46.55
2018-06-28T21:14:39.815Z,48.98
2018-06-28T21:17:07.989Z,47.45
2018-06-28T21:19:36.062Z,47.65
2018-06-28T21:22:04.458Z,46.20
2018-06-28T21:24:32.704Z,46.10
2018-06-28T21:27:00.800Z,46.08
2018-06-28T21:29:29.080Z,46.75
2018-06-28T21:31:57.282Z,47.95
2018-06-28T21:34:25.332Z,49.50
2018-06-28T21:36:53.405Z,47.38
2018-06-28T21:39:21.563Z,46.83
2018-06-28T21:41:49.663Z,49.95
2018-06-28T21:44:17.842Z,51.70
2018-06-28T21:46:45.900Z,47.33
2018-06-28T21:49:14.097Z,48.83
2018-06-28T21:51:42.131Z,50.85
2018-06-28T21:54:10.233Z,50.90
2018-06-28T21:56:38.489Z,51.90
2018-06-28T21:59:06.803Z,50.40
2018-06-28T22:01:34.943Z,48.28
2018-06-28T22:04:03.034Z,49.08
2018-06-28T22:06:31.290Z,49.90
2018-06-28T22:08:59.386Z,51.53
2018-06-28T22:11:27.444Z,45.45
2018-06-28T22:13:55.558Z,51.40
2018-06-28T22:16:23.685Z,50.25
2018-06-28T22:18:51.767Z,52.50
2018-06-28T22:21:19.820Z,55.55
2018-06-28T22:23:48.020Z,55.23
2018-06-28T22:26:16.204Z,55.12
2018-06-28T22:28:44.348Z,56.33
2018-06-28T22:31:12.565Z,58.25
2018-06-28T22:33:40.602Z,60.85
2018-06-28T22:36:08.710Z,60.83
2018-06-28T22:38:36.845Z,63.63
2018-06-28T22:41:04.950Z,60.52
2018-06-28T22:43:33.002Z,63.50
2018-06-28T22:46:01.080Z,64.03
2018-06-28T22:48:29.252Z,61.15
2018-06-28T22:50:57.357Z,57.13
2018-06-28T22:53:25.527Z,60.03
2018-06-28T22:55:53.703Z,66.42
2018-06-28T22:58:21.785Z,65.03
2018-06-28T23:00:49.808Z,69.70
2018-06-28T23:03:17.578Z,65.83
2018-06-28T23:05:45.695Z,68.65
2018-06-28T23:08:13.731Z,70.57
2018-06-28T23:10:41.928Z,77.58
2018-06-28T23:13:09.988Z,75.57
2018-06-28T23:15:38.084Z,74.85
2018-06-28T23:18:06.433Z,79.35
2018-06-28T23:20:34.505Z,76.72
2018-06-28T23:23:02.603Z,69.40
2018-06-28T23:25:30.665Z,70.28
2018-06-28T23:27:58.865Z,68.10
2018-06-28T23:30:27.029Z,72.53
2018-06-28T23:32:55.121Z,73.37
2018-06-28T23:35:23.371Z,73.67
2018-06-28T23:37:51.436Z,69.07
2018-06-28T23:40:19.539Z,66.47
2018-06-28T23:42:47.672Z,65.90
2018-06-28T23:45:15.777Z,65.83
2018-06-28T23:47:43.927Z,63.85
2018-06-28T23:50:12.109Z,65.70
2018-06-28T23:52:40.207Z,63.37
2018-06-28T23:55:08.468Z,61.68
2018-06-28T23:57:36.640Z,68.27
